Terminal Aerodrome Forecast
Issued by NWS Bismarck, ND

Current Version | Previous Version | Text Only | Print | Product List | Glossary On
Versions: 1 2 3 4 5 6 7 8 9 10 11 12 13 14 15 16 17 18
844
FTUS43 KBIS 251132
TAFBIS
TAF
KBIS 251132Z 2512/2612 29004KT P6SM VCSH BKN080 OVC110
      TEMPO 2512/2515 -SHRA OVC060
     FM251700 32008KT P6SM VCSH SCT070 BKN100
     FM252000 35012KT P6SM FEW060 SCT100
     FM260300 02005KT P6SM SKC=

USA.gov is the U.S. government's official web portal to all federal, state and local government web resources and services.